createdAt,value
2023-01-13T00:01:09.775Z,8.17
2023-01-13T00:03:36.874Z,7.00
2023-01-13T00:06:04.776Z,4.50
2023-01-13T00:08:31.859Z,7.60
2023-01-13T00:10:58.701Z,7.10
2023-01-13T00:13:28.294Z,5.13
2023-01-13T00:15:59.679Z,4.70
2023-01-13T00:18:26.841Z,6.77
2023-01-13T00:21:05.056Z,3.93
2023-01-13T00:23:33.484Z,8.67
2023-01-13T00:26:02.992Z,5.03
2023-01-13T00:28:29.800Z,8.37
2023-01-13T00:30:58.597Z,4.87
2023-01-13T00:33:25.779Z,6.13
2023-01-13T00:35:59.907Z,6.40
2023-01-13T00:38:26.645Z,5.87
2023-01-13T00:41:05.952Z,4.30
2023-01-13T00:43:34.337Z,5.13
2023-01-13T00:46:01.890Z,4.63
2023-01-13T00:48:29.070Z,5.07
2023-01-13T00:51:00.363Z,7.77
2023-01-13T00:53:28.086Z,6.83
2023-01-13T00:56:14.291Z,9.23
2023-01-13T00:58:41.733Z,3.30
2023-01-13T01:01:11.531Z,5.53
2023-01-13T01:03:38.630Z,3.50
2023-01-13T01:06:12.201Z,2.70
2023-01-13T01:08:39.241Z,4.57
2023-01-13T01:11:29.851Z,3.17
2023-01-13T01:13:58.516Z,5.20
2023-01-13T01:16:27.405Z,5.33
2023-01-13T01:18:55.568Z,6.20
2023-01-13T01:21:24.748Z,5.17
2023-01-13T01:23:51.724Z,5.07
2023-01-13T01:26:21.055Z,2.80
2023-01-13T01:28:48.425Z,7.03
2023-01-13T01:31:18.219Z,5.13
2023-01-13T01:33:47.491Z,4.03
2023-01-13T01:36:15.965Z,3.33
2023-01-13T01:38:43.355Z,7.87
2023-01-13T01:41:14.915Z,6.50
2023-01-13T01:44:07.298Z,4.23
2023-01-13T01:46:44.825Z,3.97
2023-01-13T01:49:15.499Z,4.70
2023-01-13T01:51:49.815Z,5.43
2023-01-13T01:54:21.295Z,9.23
2023-01-13T01:56:48.474Z,3.13
2023-01-13T01:59:15.978Z,4.53
2023-01-13T02:01:43.849Z,3.03
2023-01-13T02:04:33.871Z,2.47
2023-01-13T02:07:02.919Z,5.50
2023-01-13T02:09:30.439Z,2.93
2023-01-13T02:12:15.675Z,5.33
2023-01-13T02:14:42.960Z,4.80
2023-01-13T02:17:21.916Z,4.17
2023-01-13T02:20:22.794Z,5.27
2023-01-13T02:23:08.105Z,3.33
2023-01-13T02:26:11.586Z,4.60
2023-01-13T02:29:15.932Z,3.83
2023-01-13T02:31:47.117Z,3.37
2023-01-13T02:34:31.022Z,3.10
2023-01-13T02:37:22.510Z,1.77
2023-01-13T02:40:02.778Z,3.33
2023-01-13T02:43:02.234Z,2.30
2023-01-13T02:45:33.909Z,3.33
2023-01-13T02:48:03.011Z,3.20
2023-01-13T02:50:35.935Z,2.80
2023-01-13T02:53:08.766Z,2.70
2023-01-13T02:55:46.470Z,2.83
2023-01-13T02:58:17.359Z,2.37
2023-01-13T03:00:45.552Z,2.83
2023-01-13T03:03:12.159Z,1.80
2023-01-13T03:05:40.883Z,3.20
2023-01-13T03:08:15.623Z,2.43
2023-01-13T03:10:51.140Z,2.03
2023-01-13T03:13:29.908Z,3.40
2023-01-13T03:16:11.606Z,2.00
2023-01-13T03:19:03.098Z,3.93
2023-01-13T03:21:44.259Z,3.27
2023-01-13T03:24:20.591Z,3.27
2023-01-13T03:27:17.211Z,2.50
2023-01-13T03:29:52.793Z,2.57
2023-01-13T03:32:42.458Z,2.47
2023-01-13T03:35:16.045Z,2.50
2023-01-13T03:37:47.879Z,2.90
2023-01-13T03:40:22.073Z,2.37
2023-01-13T03:43:14.236Z,2.20
2023-01-13T03:45:43.226Z,2.80
2023-01-13T03:48:16.500Z,2.33
2023-01-13T03:50:56.389Z,1.87
2023-01-13T03:53:33.403Z,3.50
2023-01-13T03:56:08.496Z,2.37
2023-01-13T03:58:48.169Z,3.03
2023-01-13T04:01:35.316Z,2.33
2023-01-13T04:04:08.509Z,1.67
2023-01-13T04:06:50.584Z,3.07
2023-01-13T04:09:33.453Z,2.43
2023-01-13T04:12:13.334Z,4.93
2023-01-13T04:14:40.876Z,3.17
2023-01-13T04:17:07.471Z,3.47
2023-01-13T04:19:34.083Z,2.90
2023-01-13T04:22:00.730Z,4.60
2023-01-13T04:24:27.385Z,4.77
2023-01-13T04:26:54.034Z,2.30
2023-01-13T04:29:20.581Z,2.90
2023-01-13T04:31:47.175Z,4.07
2023-01-13T04:34:13.911Z,3.13
2023-01-13T04:36:40.778Z,2.23
2023-01-13T04:39:07.425Z,3.37
2023-01-13T04:41:53.948Z,2.97
2023-01-13T04:44:20.570Z,3.13
2023-01-13T04:46:47.404Z,3.83
2023-01-13T04:49:14.189Z,3.10
2023-01-13T04:51:40.805Z,3.43
2023-01-13T04:54:07.512Z,3.50
2023-01-13T04:56:34.164Z,3.77
2023-01-13T04:59:00.780Z,2.93
2023-01-13T05:01:27.666Z,3.13
2023-01-13T05:03:54.389Z,8.60
2023-01-13T05:06:21.071Z,3.90
2023-01-13T05:08:47.697Z,4.20
2023-01-13T05:11:33.179Z,3.73
2023-01-13T05:14:18.416Z,3.20
2023-01-13T05:17:02.260Z,5.30
2023-01-13T05:19:35.658Z,8.03
2023-01-13T05:22:21.583Z,13.30
2023-01-13T05:25:06.470Z,3.10
2023-01-13T05:27:33.856Z,4.97
2023-01-13T05:30:00.744Z,5.43
2023-01-13T05:32:31.140Z,3.50
2023-01-13T05:34:57.749Z,5.83
2023-01-13T05:37:24.788Z,3.57
2023-01-13T05:40:14.741Z,5.20
2023-01-13T05:43:00.045Z,6.17
2023-01-13T05:45:26.982Z,6.80
2023-01-13T05:47:53.579Z,6.27
2023-01-13T05:50:21.434Z,3.83
2023-01-13T05:52:48.133Z,4.93
2023-01-13T05:55:14.958Z,6.37
2023-01-13T05:57:41.889Z,7.43
2023-01-13T06:00:09.127Z,5.23
2023-01-13T06:02:35.750Z,5.23
2023-01-13T06:05:11.345Z,4.37
2023-01-13T06:07:38.000Z,5.77
2023-01-13T06:10:04.933Z,4.33
2023-01-13T06:12:31.663Z,4.63
2023-01-13T06:14:58.264Z,3.67
2023-01-13T06:17:24.881Z,7.57
2023-01-13T06:19:51.487Z,4.93
2023-01-13T06:22:33.025Z,4.77
2023-01-13T06:24:59.761Z,5.27
2023-01-13T06:27:26.436Z,2.97
2023-01-13T06:29:53.033Z,4.50
2023-01-13T06:32:23.396Z,5.57
2023-01-13T06:34:55.573Z,5.40
2023-01-13T06:37:26.198Z,5.50
2023-01-13T06:39:58.157Z,7.90
2023-01-13T06:42:46.444Z,5.43
2023-01-13T06:45:13.114Z,5.00
2023-01-13T06:47:39.904Z,3.50
2023-01-13T06:50:06.838Z,9.87
2023-01-13T06:52:33.416Z,6.47
2023-01-13T06:55:00.036Z,7.77
2023-01-13T06:57:26.617Z,7.63
2023-01-13T06:59:53.441Z,6.03
2023-01-13T07:02:20.417Z,4.23
2023-01-13T07:04:47.168Z,6.30
2023-01-13T07:07:14.181Z,5.50
2023-01-13T07:09:40.781Z,8.63
2023-01-13T07:12:07.740Z,5.40
2023-01-13T07:14:54.479Z,7.40
2023-01-13T07:17:25.447Z,6.17
2023-01-13T07:19:53.195Z,4.33
2023-01-13T07:22:19.832Z,5.17
2023-01-13T07:24:46.566Z,6.37
2023-01-13T07:27:13.312Z,5.93
2023-01-13T07:29:39.866Z,6.23
2023-01-13T07:32:07.993Z,7.07
2023-01-13T07:34:34.727Z,7.20
2023-01-13T07:37:01.816Z,5.43
2023-01-13T07:39:28.376Z,5.77
2023-01-13T07:42:13.958Z,9.20
2023-01-13T07:44:40.602Z,4.97
2023-01-13T07:47:08.579Z,4.17
2023-01-13T07:49:35.135Z,7.40
2023-01-13T07:52:01.916Z,4.40
2023-01-13T07:54:40.313Z,3.73
2023-01-13T07:57:08.064Z,6.20
2023-01-13T07:59:34.704Z,6.87
2023-01-13T08:02:01.466Z,3.43
2023-01-13T08:04:28.203Z,8.03
2023-01-13T08:06:54.787Z,3.27
2023-01-13T08:09:21.375Z,5.00
2023-01-13T08:12:13.708Z,3.40
2023-01-13T08:14:40.346Z,5.03
2023-01-13T08:17:10.622Z,4.03
2023-01-13T08:19:37.239Z,6.57
2023-01-13T08:22:03.858Z,2.93
2023-01-13T08:24:30.547Z,4.87
2023-01-13T08:27:03.145Z,3.40
2023-01-13T08:29:54.146Z,3.67
2023-01-13T08:32:21.032Z,3.63
2023-01-13T08:37:30.938Z,4.73
2023-01-13T08:40:16.939Z,4.47
2023-01-13T08:43:19.316Z,6.23
2023-01-13T08:46:09.264Z,4.40
2023-01-13T08:51:51.117Z,8.13
2023-01-13T08:54:19.005Z,6.27
2023-01-13T08:56:47.158Z,5.43
2023-01-13T08:59:16.102Z,5.73
2023-01-13T09:01:43.266Z,5.57
2023-01-13T09:04:20.490Z,5.77
2023-01-13T09:06:47.907Z,3.90
2023-01-13T09:09:15.171Z,7.20
2023-01-13T09:12:03.502Z,2.40
2023-01-13T09:14:32.257Z,4.10
2023-01-13T09:16:59.962Z,4.20
2023-01-13T09:19:27.582Z,4.10
2023-01-13T09:21:55.556Z,3.63
2023-01-13T09:24:23.489Z,4.87
2023-01-13T09:26:50.412Z,3.00
2023-01-13T09:29:17.939Z,4.17
2023-01-13T09:31:44.703Z,4.17
2023-01-13T09:34:34.200Z,2.40
2023-01-13T09:37:01.279Z,6.63
2023-01-13T09:39:27.915Z,5.50
2023-01-13T09:42:15.918Z,2.50
2023-01-13T09:44:56.119Z,2.70
2023-01-13T09:47:44.604Z,2.63
2023-01-13T09:50:14.165Z,2.83
2023-01-13T09:52:45.881Z,2.50
2023-01-13T09:55:22.874Z,1.50
2023-01-13T09:57:49.483Z,1.70
2023-01-13T10:00:22.381Z,2.37
2023-01-13T10:03:04.245Z,1.80
2023-01-13T10:05:41.211Z,3.07
2023-01-13T10:08:22.058Z,3.20
2023-01-13T10:10:51.494Z,2.03
2023-01-13T10:13:26.501Z,1.83
2023-01-13T10:15:53.073Z,1.37
2023-01-13T10:18:46.073Z,1.30
2023-01-13T10:21:43.864Z,1.63
2023-01-13T10:24:48.161Z,2.37
2023-01-13T10:27:27.471Z,3.67
2023-01-13T10:29:54.038Z,2.37
2023-01-13T10:32:20.690Z,3.53
2023-01-13T10:34:52.000Z,2.70
2023-01-13T10:37:24.320Z,2.93
2023-01-13T10:39:55.508Z,2.10
2023-01-13T10:42:24.594Z,4.13
2023-01-13T10:44:51.145Z,2.13
2023-01-13T10:47:20.763Z,4.30
2023-01-13T10:50:01.138Z,2.77
2023-01-13T10:52:30.069Z,2.70
2023-01-13T10:54:57.120Z,2.13
2023-01-13T10:57:26.946Z,1.97
2023-01-13T10:59:54.851Z,2.90
2023-01-13T11:02:30.711Z,4.33
2023-01-13T11:05:03.233Z,4.60
2023-01-13T11:07:36.630Z,4.57
2023-01-13T11:10:09.155Z,3.67
2023-01-13T11:12:50.904Z,2.93
2023-01-13T11:15:22.780Z,3.50
2023-01-13T11:17:53.594Z,3.80
2023-01-13T11:20:42.029Z,2.97
2023-01-13T11:23:40.107Z,2.13
2023-01-13T11:26:23.839Z,3.93
2023-01-13T11:29:00.120Z,3.40
2023-01-13T11:31:36.177Z,3.83
2023-01-13T11:34:27.151Z,3.57
2023-01-13T11:36:57.526Z,2.63
2023-01-13T11:39:33.504Z,2.93
2023-01-13T11:42:24.305Z,3.83
2023-01-13T11:45:17.578Z,2.60
2023-01-13T11:47:51.351Z,3.30
2023-01-13T11:50:51.084Z,3.57
2023-01-13T11:53:36.543Z,5.03
2023-01-13T11:56:05.919Z,2.57
2023-01-13T11:58:51.691Z,9.57
2023-01-13T12:01:30.344Z,5.23
2023-01-13T12:04:43.308Z,2.80
2023-01-13T12:07:47.399Z,3.53
2023-01-13T12:10:43.976Z,3.77
2023-01-13T12:13:48.891Z,3.47
2023-01-13T12:19:32.145Z,4.53
2023-01-13T12:22:16.295Z,3.93
2023-01-13T12:25:06.479Z,2.93
2023-01-13T12:28:13.321Z,4.87
2023-01-13T12:31:18.331Z,4.57
2023-01-13T12:34:03.130Z,7.33
2023-01-13T12:37:04.475Z,3.50
2023-01-13T12:40:10.459Z,4.60
2023-01-13T12:43:10.885Z,4.27
2023-01-13T12:45:37.654Z,6.80
2023-01-13T12:48:05.205Z,5.73
2023-01-13T12:50:31.769Z,4.50
2023-01-13T12:53:19.452Z,2.90
2023-01-13T12:55:51.806Z,2.07
2023-01-13T12:58:28.169Z,2.60
2023-01-13T13:01:28.974Z,3.60
2023-01-13T13:04:17.862Z,5.27
2023-01-13T13:07:04.920Z,3.33
2023-01-13T13:09:39.815Z,2.60
2023-01-13T13:12:49.914Z,2.47
2023-01-13T13:15:24.409Z,2.40
2023-01-13T13:18:03.159Z,4.23
2023-01-13T13:20:54.645Z,7.50
2023-01-13T13:23:32.858Z,7.17
2023-01-13T13:26:24.020Z,4.10
2023-01-13T13:29:12.209Z,2.93
2023-01-13T13:31:44.798Z,2.47
2023-01-13T13:34:40.667Z,3.13
2023-01-13T13:37:07.218Z,2.90
2023-01-13T13:39:52.992Z,2.70
2023-01-13T13:42:35.947Z,3.90
2023-01-13T13:45:31.387Z,3.53
2023-01-13T13:47:57.984Z,2.47
2023-01-13T13:50:24.694Z,2.27
2023-01-13T13:52:58.848Z,7.43
2023-01-13T13:55:27.760Z,3.10
2023-01-13T13:57:57.519Z,2.97
2023-01-13T14:00:34.541Z,3.17
2023-01-13T14:03:04.184Z,7.27
2023-01-13T14:05:35.546Z,13.70
2023-01-13T14:08:18.338Z,11.23
2023-01-13T14:10:46.303Z,6.70
2023-01-13T14:13:20.674Z,4.97
2023-01-13T14:15:50.490Z,3.27
2023-01-13T14:18:21.724Z,4.00
2023-01-13T14:20:54.307Z,5.97
2023-01-13T14:23:26.651Z,3.27
2023-01-13T14:25:53.758Z,8.87
2023-01-13T14:28:45.411Z,3.33
2023-01-13T14:31:16.180Z,4.03
2023-01-13T14:34:31.812Z,3.53
2023-01-13T14:36:54.901Z,2.70
2023-01-13T14:39:26.115Z,3.27
2023-01-13T14:41:53.487Z,3.07
2023-01-13T14:44:34.619Z,3.37
2023-01-13T14:47:05.196Z,2.63
2023-01-13T14:49:39.461Z,3.20
2023-01-13T14:52:20.019Z,3.87
2023-01-13T14:54:58.699Z,4.83
2023-01-13T14:57:25.935Z,12.37
2023-01-13T14:59:56.209Z,5.73
2023-01-13T15:02:25.766Z,5.00
2023-01-13T15:04:58.721Z,6.87
2023-01-13T15:07:28.108Z,8.33
2023-01-13T15:09:58.229Z,7.27
2023-01-13T15:12:36.300Z,8.33
2023-01-13T15:15:07.916Z,7.43
2023-01-13T15:17:35.066Z,7.33
2023-01-13T15:20:03.213Z,9.10
2023-01-13T15:22:29.940Z,8.17
2023-01-13T15:24:57.485Z,5.00
2023-01-13T15:27:26.056Z,8.73
2023-01-13T15:29:52.659Z,9.23
2023-01-13T15:32:21.189Z,7.77
2023-01-13T15:34:48.940Z,11.60
2023-01-13T15:37:17.259Z,9.73
2023-01-13T15:39:44.060Z,9.70
2023-01-13T15:42:32.580Z,9.83
2023-01-13T15:45:17.983Z,6.70
2023-01-13T15:47:45.207Z,9.50
2023-01-13T15:50:19.342Z,8.40
2023-01-13T15:52:46.068Z,11.73
2023-01-13T15:55:18.971Z,8.10
2023-01-13T15:57:49.916Z,21.00
2023-01-13T16:00:30.952Z,31.53
2023-01-13T16:03:11.456Z,73.50
2023-01-13T16:05:38.816Z,137.97
2023-01-13T16:08:05.948Z,50.53
2023-01-13T16:10:32.739Z,16.73
2023-01-13T16:12:59.350Z,16.60
2023-01-13T16:15:26.172Z,16.57
2023-01-13T16:17:57.893Z,15.07
2023-01-13T16:20:24.787Z,11.60
2023-01-13T16:22:51.452Z,10.87
2023-01-13T16:25:23.650Z,16.37
2023-01-13T16:27:51.191Z,8.80
2023-01-13T16:30:27.367Z,11.00
2023-01-13T16:32:55.198Z,10.23
2023-01-13T16:35:23.427Z,10.23
2023-01-13T16:37:50.658Z,9.03
2023-01-13T16:40:25.175Z,12.80
2023-01-13T16:42:52.428Z,8.20
2023-01-13T16:45:19.582Z,8.47
2023-01-13T16:47:46.584Z,7.17
2023-01-13T16:50:22.600Z,11.50
2023-01-13T16:52:49.920Z,9.63
2023-01-13T16:55:16.695Z,20.63
2023-01-13T16:57:43.325Z,11.87
2023-01-13T17:00:12.447Z,9.60
2023-01-13T17:02:39.748Z,17.63
2023-01-13T17:05:07.283Z,17.07
2023-01-13T17:07:33.933Z,16.90
2023-01-13T17:10:00.643Z,19.77
2023-01-13T17:12:27.327Z,33.13
2023-01-13T17:14:53.934Z,16.77
2023-01-13T17:17:26.070Z,32.27
2023-01-13T17:19:53.827Z,111.33
2023-01-13T17:22:21.887Z,61.93
2023-01-13T17:24:48.909Z,30.77
2023-01-13T17:27:17.343Z,32.03
2023-01-13T17:29:44.221Z,31.73
2023-01-13T17:32:16.569Z,17.50
2023-01-13T17:34:43.629Z,29.10
2023-01-13T17:37:13.818Z,25.07
2023-01-13T17:39:43.662Z,22.20
2023-01-13T17:42:11.607Z,21.80
2023-01-13T17:44:38.747Z,21.30
2023-01-13T17:47:05.819Z,17.43
2023-01-13T17:49:32.950Z,20.73
2023-01-13T17:51:59.611Z,17.50
2023-01-13T17:54:26.332Z,20.83
2023-01-13T17:56:52.996Z,25.10
2023-01-13T17:59:20.085Z,23.10
2023-01-13T18:01:46.786Z,24.50
2023-01-13T18:04:18.150Z,25.30
2023-01-13T18:06:45.755Z,20.73
2023-01-13T18:09:12.472Z,20.93
2023-01-13T18:11:39.646Z,19.90
2023-01-13T18:14:09.897Z,20.57
2023-01-13T18:16:49.413Z,16.37
2023-01-13T18:19:35.030Z,20.97
2023-01-13T18:22:27.439Z,16.03
2023-01-13T18:25:12.778Z,19.23
2023-01-13T18:27:41.812Z,12.17
2023-01-13T18:30:23.026Z,21.90
2023-01-13T18:32:50.505Z,17.70
2023-01-13T18:35:17.149Z,20.07
2023-01-13T18:37:44.365Z,21.37
2023-01-13T18:40:13.667Z,21.63
2023-01-13T18:42:56.239Z,19.10
2023-01-13T18:45:29.223Z,19.80
2023-01-13T18:47:58.603Z,17.03
2023-01-13T18:50:25.481Z,14.37
2023-01-13T18:52:53.411Z,12.60
2023-01-13T18:55:21.083Z,17.10
2023-01-13T18:57:48.838Z,14.10
2023-01-13T19:00:20.023Z,17.60
2023-01-13T19:05:34.616Z,9.80
2023-01-13T19:08:02.141Z,14.03
2023-01-13T19:10:32.118Z,14.17
2023-01-13T19:12:59.091Z,18.40
2023-01-13T19:15:38.755Z,19.23
2023-01-13T19:18:05.610Z,14.70
2023-01-13T19:20:32.348Z,14.13
2023-01-13T19:22:58.968Z,24.70
2023-01-13T19:25:25.620Z,26.27
2023-01-13T19:27:52.289Z,26.27
2023-01-13T19:30:19.394Z,32.07
2023-01-13T19:32:46.089Z,25.17
2023-01-13T19:35:17.512Z,25.87
2023-01-13T19:37:54.006Z,19.40
2023-01-13T19:40:20.872Z,30.27
2023-01-13T19:43:06.416Z,22.77
2023-01-13T19:45:35.405Z,23.40
2023-01-13T19:48:04.840Z,20.57
2023-01-13T19:50:36.762Z,20.90
2023-01-13T19:53:03.655Z,17.43
2023-01-13T19:55:33.113Z,16.20
2023-01-13T19:58:04.082Z,13.00
2023-01-13T20:00:30.858Z,16.07
2023-01-13T20:03:03.289Z,9.80
2023-01-13T20:05:31.115Z,11.43
2023-01-13T20:07:58.125Z,14.20
2023-01-13T20:10:25.243Z,10.93
2023-01-13T20:12:58.364Z,10.27
2023-01-13T20:15:26.281Z,15.47
2023-01-13T20:17:53.887Z,12.67
2023-01-13T20:20:30.424Z,6.50
2023-01-13T20:23:00.246Z,7.67
2023-01-13T20:25:31.503Z,5.63
2023-01-13T20:27:58.848Z,8.07
2023-01-13T20:30:28.596Z,7.67
2023-01-13T20:32:55.473Z,7.20
2023-01-13T20:35:29.646Z,7.17
2023-01-13T20:37:56.675Z,8.63
2023-01-13T20:40:41.809Z,6.67
2023-01-13T20:43:08.615Z,8.60
2023-01-13T20:45:43.945Z,10.73
2023-01-13T20:48:19.480Z,14.23
2023-01-13T20:51:10.846Z,12.53
2023-01-13T20:53:37.662Z,11.63
2023-01-13T20:56:08.768Z,10.37
2023-01-13T20:58:37.341Z,21.83
2023-01-13T21:01:04.650Z,14.20
2023-01-13T21:03:31.368Z,11.93
2023-01-13T21:05:58.419Z,15.47
2023-01-13T21:08:25.021Z,12.03
2023-01-13T21:10:51.678Z,11.67
2023-01-13T21:13:37.054Z,13.03
2023-01-13T21:16:03.914Z,14.93
2023-01-13T21:18:49.059Z,10.83
2023-01-13T21:21:16.113Z,12.03
2023-01-13T21:23:44.429Z,16.10
2023-01-13T21:26:12.250Z,16.07
2023-01-13T21:28:38.976Z,19.93
2023-01-13T21:31:08.751Z,16.97
2023-01-13T21:33:36.242Z,21.97
2023-01-13T21:36:16.016Z,36.43
2023-01-13T21:38:42.657Z,21.63
2023-01-13T21:41:09.533Z,21.57
2023-01-13T21:43:56.345Z,16.77
2023-01-13T21:46:42.388Z,12.73
2023-01-13T21:49:09.074Z,13.90
2023-01-13T21:51:35.722Z,15.90
2023-01-13T21:54:02.519Z,9.93
2023-01-13T21:56:29.128Z,12.03
2023-01-13T21:58:58.325Z,8.27
2023-01-13T22:01:25.201Z,7.37
2023-01-13T22:04:17.998Z,7.50
2023-01-13T22:06:53.115Z,6.97
2023-01-13T22:09:19.856Z,5.87
2023-01-13T22:11:46.492Z,7.67
2023-01-13T22:14:14.065Z,18.13
2023-01-13T22:16:49.050Z,13.87
2023-01-13T22:19:18.232Z,10.93
2023-01-13T22:21:44.944Z,12.83
2023-01-13T22:24:11.757Z,16.70
2023-01-13T22:26:38.611Z,18.50
2023-01-13T22:29:05.249Z,14.87
2023-01-13T22:31:32.041Z,18.07
2023-01-13T22:33:58.656Z,14.73
2023-01-13T22:36:25.323Z,16.07
2023-01-13T22:38:56.351Z,19.00
2023-01-13T22:41:23.544Z,12.73
2023-01-13T22:43:50.237Z,11.03
2023-01-13T22:46:17.469Z,10.63
2023-01-13T22:48:44.397Z,12.73
2023-01-13T22:51:16.298Z,17.50
2023-01-13T22:53:42.884Z,15.37
2023-01-13T22:56:21.502Z,18.63
2023-01-13T22:58:49.126Z,18.90
2023-01-13T23:01:17.469Z,18.33
2023-01-13T23:03:47.689Z,17.20
2023-01-13T23:06:14.916Z,14.40
2023-01-13T23:08:41.924Z,17.43
2023-01-13T23:11:10.738Z,15.53
2023-01-13T23:13:39.383Z,16.20
2023-01-13T23:16:08.554Z,18.57
2023-01-13T23:18:35.185Z,17.73
2023-01-13T23:21:10.663Z,11.77
2023-01-13T23:23:37.945Z,15.73
2023-01-13T23:26:06.047Z,13.80
2023-01-13T23:28:33.606Z,27.57
2023-01-13T23:31:00.546Z,19.60
2023-01-13T23:33:27.269Z,19.47
2023-01-13T23:36:02.135Z,18.77
2023-01-13T23:38:29.552Z,13.20
2023-01-13T23:40:56.858Z,18.00
2023-01-13T23:43:24.002Z,16.07
2023-01-13T23:45:50.633Z,13.70
2023-01-13T23:48:18.674Z,19.70
2023-01-13T23:50:56.021Z,17.00
2023-01-13T23:53:22.621Z,15.67
2023-01-13T23:55:49.205Z,14.07
2023-01-13T23:58:15.905Z,18.50
